Time,TemperatureF,DewpointF,PressureIn,WindDirection,WindDirectionDegrees,WindSpeedMPH,WindSpeedGustMPH,Humidity,HourlyPrecipIn,Conditions,Clouds,dailyrainin,SoftwareType,DateUTC
2013-02-17 00:01:00,44.5,6.9,30.04,NW,304,3.0,4.0,21,0.00,,,0.00,Wunderground v.1.15,2013-02-17 07:01:00,
2013-02-17 00:07:00,45.6,4.5,30.04,ESE,113,5.0,5.0,18,0.00,,,0.00,Wunderground v.1.15,2013-02-17 07:07:00,
2013-02-17 00:12:00,48.6,4.3,30.04,SE,125,3.0,6.0,16,0.00,,,0.00,Wunderground v.1.15,2013-02-17 07:12:00,
2013-02-17 00:18:00,50.2,4.2,30.04,SE,127,1.0,7.0,15,0.00,,,0.00,Wunderground v.1.15,2013-02-17 07:18:00,
2013-02-17 00:23:00,50.0,4.1,30.04,ESE,105,3.0,4.0,15,0.00,,,0.00,Wunderground v.1.15,2013-02-17 07:23:00,
2013-02-17 00:28:00,49.6,3.8,30.04,WNW,283,0.0,4.0,15,0.00,,,0.00,Wunderground v.1.15,2013-02-17 07:28:00,
2013-02-17 00:33:00,47.6,4.9,30.04,WSW,243,0.0,1.0,17,0.00,,,0.00,Wunderground v.1.15,2013-02-17 07:33:00,
2013-02-17 00:38:00,45.8,5.8,30.04,SW,228,0.0,1.0,19,0.00,,,0.00,Wunderground v.1.15,2013-02-17 07:38:00,
2013-02-17 00:44:00,44.2,5.6,30.04,WSW,253,0.0,0.0,20,0.00,,,0.00,Wunderground v.1.15,2013-02-17 07:44:00,
2013-02-17 00:50:00,43.3,6.9,30.04,SW,229,0.0,0.0,22,0.00,,,0.00,Wunderground v.1.15,2013-02-17 07:50:00,
2013-02-17 00:55:00,42.9,6.6,30.04,SSW,207,2.0,2.0,22,0.00,,,0.00,Wunderground v.1.15,2013-02-17 07:55:00,
2013-02-17 01:00:00,42.2,7.0,30.03,SSW,207,0.0,0.0,23,0.00,,,0.00,Wunderground v.1.15,2013-02-17 08:00:00,
2013-02-17 01:06:00,41.3,8.1,30.03,South,191,0.0,0.0,25,0.00,,,0.00,Wunderground v.1.15,2013-02-17 08:06:00,
2013-02-17 01:11:00,41.3,8.1,30.03,East,93,0.0,0.0,25,0.00,,,0.00,Wunderground v.1.15,2013-02-17 08:11:00,
2013-02-17 01:17:00,40.1,7.9,30.03,East,96,1.0,2.0,26,0.00,,,0.00,Wunderground v.1.15,2013-02-17 08:17:00,
2013-02-17 01:22:00,39.8,8.5,30.03,ENE,74,1.0,2.0,27,0.00,,,0.00,Wunderground v.1.15,2013-02-17 08:22:00,
2013-02-17 01:28:00,36.8,8.2,30.03,ENE,72,2.0,2.0,30,0.00,,,0.00,Wunderground v.1.15,2013-02-17 08:28:00,
2013-02-17 01:33:00,35.7,8.7,30.03,ENE,70,0.0,2.0,32,0.00,,,0.00,Wunderground v.1.15,2013-02-17 08:33:00,
2013-02-17 01:38:00,35.3,9.0,30.02,East,79,0.0,2.0,33,0.00,,,0.00,Wunderground v.1.15,2013-02-17 08:38:00,
2013-02-17 01:44:00,35.5,8.5,30.02,East,87,3.0,3.0,32,0.00,,,0.00,Wunderground v.1.15,2013-02-17 08:44:00,
2013-02-17 01:50:00,35.7,8.7,30.02,East,92,2.0,2.0,32,0.00,,,0.00,Wunderground v.1.15,2013-02-17 08:50:00,
2013-02-17 01:55:00,35.8,8.8,30.02,East,95,3.0,3.0,32,0.00,,,0.00,Wunderground v.1.15,2013-02-17 08:55:00,
2013-02-17 02:01:00,37.1,7.7,30.02,East,84,3.0,3.0,29,0.00,,,0.00,Wunderground v.1.15,2013-02-17 09:01:00,
2013-02-17 02:06:00,37.9,8.4,30.01,East,86,4.0,5.0,29,0.00,,,0.00,Wunderground v.1.15,2013-02-17 09:06:00,
2013-02-17 02:11:00,38.1,8.6,30.01,ENE,75,2.0,4.0,29,0.00,,,0.00,Wunderground v.1.15,2013-02-17 09:11:00,
2013-02-17 02:16:00,37.2,8.6,30.01,East,100,5.0,5.0,30,0.00,,,0.00,Wunderground v.1.15,2013-02-17 09:16:00,
2013-02-17 02:21:00,38.3,8.0,30.01,ESE,105,4.0,5.0,28,0.00,,,0.00,Wunderground v.1.15,2013-02-17 09:21:00,
2013-02-17 02:26:00,38.6,8.2,30.01,East,87,3.0,5.0,28,0.00,,,0.00,Wunderground v.1.15,2013-02-17 09:26:00,
2013-02-17 02:31:00,38.1,8.6,30.01,ESE,103,0.0,3.0,29,0.00,,,0.00,Wunderground v.1.15,2013-02-17 09:31:00,
2013-02-17 02:36:00,37.3,7.9,30.00,ENE,70,1.0,3.0,29,0.00,,,0.00,Wunderground v.1.15,2013-02-17 09:36:00,
2013-02-17 02:41:00,36.3,8.5,30.00,East,79,2.0,2.0,31,0.00,,,0.00,Wunderground v.1.15,2013-02-17 09:41:00,
2013-02-17 02:46:00,35.9,8.9,30.00,ENE,75,1.0,2.0,32,0.00,,,0.00,Wunderground v.1.15,2013-02-17 09:46:00,
2013-02-17 02:51:00,35.6,8.6,29.99,ENE,75,0.0,1.0,32,0.00,,,0.00,Wunderground v.1.15,2013-02-17 09:51:00,
2013-02-17 02:56:00,36.2,8.4,29.99,NE,53,1.0,2.0,31,0.00,,,0.00,Wunderground v.1.15,2013-02-17 09:56:00,
2013-02-17 03:01:00,35.8,9.5,29.99,NNE,15,2.0,3.0,33,0.00,,,0.00,Wunderground v.1.15,2013-02-17 10:01:00,
2013-02-17 03:06:00,35.1,7.5,29.99,NNW,332,2.0,3.0,31,0.00,,,0.00,Wunderground v.1.15,2013-02-17 10:06:00,
2013-02-17 03:11:00,35.5,7.8,29.99,West,268,0.0,2.0,31,0.00,,,0.00,Wunderground v.1.15,2013-02-17 10:11:00,
2013-02-17 03:16:00,36.0,6.8,29.99,West,269,0.0,2.0,29,0.00,,,0.00,Wunderground v.1.15,2013-02-17 10:16:00,
2013-02-17 03:21:00,37.1,6.9,29.99,West,269,0.0,0.0,28,0.00,,,0.00,Wunderground v.1.15,2013-02-17 10:21:00,
2013-02-17 03:26:00,36.6,6.5,29.99,West,270,0.0,0.0,28,0.00,,,0.00,Wunderground v.1.15,2013-02-17 10:26:00,
2013-02-17 03:31:00,36.7,6.6,29.99,West,270,0.0,0.0,28,0.00,,,0.00,Wunderground v.1.15,2013-02-17 10:31:00,
2013-02-17 03:36:00,36.5,6.4,29.99,West,270,0.0,0.0,28,0.00,,,0.00,Wunderground v.1.15,2013-02-17 10:36:00,
2013-02-17 03:41:00,37.5,7.3,29.99,ESE,105,0.0,0.0,28,0.00,,,0.00,Wunderground v.1.15,2013-02-17 10:41:00,
2013-02-17 03:46:00,36.1,7.6,29.99,ENE,75,0.0,0.0,30,0.00,,,0.00,Wunderground v.1.15,2013-02-17 10:46:00,
2013-02-17 03:51:00,34.7,7.8,29.99,ENE,65,3.0,3.0,32,0.00,,,0.00,Wunderground v.1.15,2013-02-17 10:51:00,
2013-02-17 03:56:00,35.3,6.9,29.98,ENE,65,2.0,4.0,30,0.00,,,0.00,Wunderground v.1.15,2013-02-17 10:56:00,
2013-02-17 04:01:00,36.8,7.5,29.98,ENE,68,2.0,3.0,29,0.00,,,0.00,Wunderground v.1.15,2013-02-17 11:01:00,
2013-02-17 04:06:00,35.2,8.9,29.98,ENE,72,2.0,3.0,33,0.00,,,0.00,Wunderground v.1.15,2013-02-17 11:06:00,
2013-02-17 04:11:00,34.3,9.4,29.98,ENE,65,1.0,2.0,35,0.00,,,0.00,Wunderground v.1.15,2013-02-17 11:11:00,
2013-02-17 04:16:00,33.6,9.4,29.98,ENE,63,2.0,3.0,36,0.00,,,0.00,Wunderground v.1.15,2013-02-17 11:16:00,
2013-02-17 04:21:00,32.9,9.4,29.98,ENE,64,2.0,2.0,37,0.00,,,0.00,Wunderground v.1.15,2013-02-17 11:21:00,
2013-02-17 04:26:00,32.5,9.7,29.98,ENE,71,2.0,3.0,38,0.00,,,0.00,Wunderground v.1.15,2013-02-17 11:26:00,
2013-02-17 04:31:00,32.8,9.9,29.97,ENE,60,2.0,3.0,38,0.00,,,0.00,Wunderground v.1.15,2013-02-17 11:31:00,
2013-02-17 04:36:00,33.2,9.7,29.97,NE,56,2.0,3.0,37,0.00,,,0.00,Wunderground v.1.15,2013-02-17 11:36:00,
2013-02-17 04:41:00,33.6,8.8,29.97,NE,56,2.0,3.0,35,0.00,,,0.00,Wunderground v.1.15,2013-02-17 11:41:00,
2013-02-17 04:46:00,34.3,8.8,29.97,ENE,62,2.0,4.0,34,0.00,,,0.00,Wunderground v.1.15,2013-02-17 11:46:00,
2013-02-17 04:51:00,34.9,9.3,29.97,ENE,59,3.0,4.0,34,0.00,,,0.00,Wunderground v.1.15,2013-02-17 11:51:00,
2013-02-17 04:56:00,34.8,8.6,29.97,ENE,58,2.0,4.0,33,0.00,,,0.00,Wunderground v.1.15,2013-02-17 11:56:00,
2013-02-17 05:01:00,34.9,8.7,29.97,ENE,66,2.0,3.0,33,0.00,,,0.00,Wunderground v.1.15,2013-02-17 12:01:00,
2013-02-17 05:06:00,34.7,9.1,29.97,ENE,67,1.0,3.0,34,0.00,,,0.00,Wunderground v.1.15,2013-02-17 12:06:00,
2013-02-17 05:11:00,34.4,8.9,29.97,ENE,77,3.0,3.0,34,0.00,,,0.00,Wunderground v.1.15,2013-02-17 12:11:00,
2013-02-17 05:16:00,34.3,9.4,29.97,ENE,67,3.0,3.0,35,0.00,,,0.00,Wunderground v.1.15,2013-02-17 12:16:00,
2013-02-17 05:21:00,34.0,9.8,29.97,ENE,68,0.0,2.0,36,0.00,,,0.00,Wunderground v.1.15,2013-02-17 12:21:00,
2013-02-17 05:26:00,34.0,9.8,29.97,ENE,63,0.0,2.0,36,0.00,,,0.00,Wunderground v.1.15,2013-02-17 12:26:00,
2013-02-17 05:31:00,34.5,9.6,29.97,ENE,63,0.0,0.0,35,0.00,,,0.00,Wunderground v.1.15,2013-02-17 12:31:00,
2013-02-17 05:36:00,33.8,10.2,29.97,East,87,0.0,0.0,37,0.00,,,0.00,Wunderground v.1.15,2013-02-17 12:36:00,
2013-02-17 05:41:00,33.8,10.2,29.97,ENE,62,3.0,4.0,37,0.00,,,0.00,Wunderground v.1.15,2013-02-17 12:41:00,
2013-02-17 05:46:00,33.4,10.5,29.97,ENE,63,2.0,4.0,38,0.00,,,0.00,Wunderground v.1.15,2013-02-17 12:46:00,
2013-02-17 05:51:00,33.1,10.2,29.97,ENE,62,2.0,3.0,38,0.00,,,0.00,Wunderground v.1.15,2013-02-17 12:51:00,
2013-02-17 05:56:00,32.9,10.0,29.97,ENE,62,2.0,3.0,38,0.00,,,0.00,Wunderground v.1.15,2013-02-17 12:56:00,
2013-02-17 06:01:00,33.9,9.1,29.97,ENE,62,1.0,2.0,35,0.00,,,0.00,Wunderground v.1.15,2013-02-17 13:01:00,
2013-02-17 06:06:00,36.1,9.0,29.96,ENE,62,0.0,2.0,32,0.00,,,0.00,Wunderground v.1.15,2013-02-17 13:06:00,
2013-02-17 06:11:00,36.1,8.3,29.97,ENE,62,0.0,1.0,31,0.00,,,0.00,Wunderground v.1.15,2013-02-17 13:11:00,
2013-02-17 06:16:00,35.3,8.3,29.97,ENE,62,0.0,1.0,32,0.00,,,0.00,Wunderground v.1.15,2013-02-17 13:16:00,
2013-02-17 06:21:00,35.0,9.4,29.97,ENE,63,0.0,0.0,34,0.00,,,0.00,Wunderground v.1.15,2013-02-17 13:21:00,
2013-02-17 06:26:00,34.6,9.7,29.97,ENE,63,0.0,0.0,35,0.00,,,0.00,Wunderground v.1.15,2013-02-17 13:26:00,
2013-02-17 06:31:00,33.9,10.3,29.96,ENE,77,0.0,0.0,37,0.00,,,0.00,Wunderground v.1.15,2013-02-17 13:31:00,
2013-02-17 06:36:00,33.2,10.3,29.96,ENE,77,0.0,0.0,38,0.00,,,0.00,Wunderground v.1.15,2013-02-17 13:36:00,
2013-02-17 06:41:00,33.1,10.8,29.96,ENE,73,0.0,0.0,39,0.00,,,0.00,Wunderground v.1.15,2013-02-17 13:41:00,
2013-02-17 06:46:00,32.9,10.6,29.97,East,87,0.0,0.0,39,0.00,,,0.00,Wunderground v.1.15,2013-02-17 13:46:00,
2013-02-17 06:51:00,33.9,10.3,29.97,East,95,0.0,0.0,37,0.00,,,0.00,Wunderground v.1.15,2013-02-17 13:51:00,
2013-02-17 06:56:00,34.4,10.8,29.96,East,87,0.0,0.0,37,0.00,,,0.00,Wunderground v.1.15,2013-02-17 13:56:00,
2013-02-17 07:01:00,34.4,10.2,29.97,East,80,0.0,0.0,36,0.00,,,0.00,Wunderground v.1.15,2013-02-17 14:01:00,
2013-02-17 07:06:00,33.7,10.7,29.97,ENE,77,0.0,0.0,38,0.00,,,0.00,Wunderground v.1.15,2013-02-17 14:06:00,
2013-02-17 07:11:00,34.2,10.6,29.96,East,80,0.0,0.0,37,0.00,,,0.00,Wunderground v.1.15,2013-02-17 14:11:00,
2013-02-17 07:16:00,36.2,10.5,29.97,East,96,0.0,0.0,34,0.00,,,0.00,Wunderground v.1.15,2013-02-17 14:16:00,
2013-02-17 07:21:00,38.4,10.3,29.96,East,98,1.0,2.0,31,0.00,,,0.00,Wunderground v.1.15,2013-02-17 14:21:00,
2013-02-17 07:26:00,40.0,10.3,29.97,East,90,1.0,2.0,29,0.00,,,0.00,Wunderground v.1.15,2013-02-17 14:26:00,
2013-02-17 07:31:00,41.1,10.4,29.97,East,95,1.0,2.0,28,0.00,,,0.00,Wunderground v.1.15,2013-02-17 14:31:00,
2013-02-17 07:36:00,42.2,10.6,29.97,East,96,2.0,2.0,27,0.00,,,0.00,Wunderground v.1.15,2013-02-17 14:36:00,
2013-02-17 07:41:00,43.6,10.0,29.97,East,94,1.0,3.0,25,0.00,,,0.00,Wunderground v.1.15,2013-02-17 14:41:00,
2013-02-17 07:46:00,45.3,9.6,29.97,East,97,2.0,3.0,23,0.00,,,0.00,Wunderground v.1.15,2013-02-17 14:46:00,
2013-02-17 07:51:00,47.1,9.1,29.97,ESE,108,1.0,3.0,21,0.00,,,0.00,Wunderground v.1.15,2013-02-17 14:51:00,
2013-02-17 07:56:00,48.3,9.0,29.97,East,89,2.0,4.0,20,0.00,,,0.00,Wunderground v.1.15,2013-02-17 14:56:00,
2013-02-17 08:01:00,49.4,8.8,29.97,ESE,108,1.0,3.0,19,0.00,,,0.00,Wunderground v.1.15,2013-02-17 15:01:00,
2013-02-17 08:06:00,50.1,9.4,29.97,ESE,113,3.0,3.0,19,0.00,,,0.00,Wunderground v.1.15,2013-02-17 15:06:00,
2013-02-17 08:11:00,50.7,8.7,29.97,ESE,120,2.0,3.0,18,0.00,,,0.00,Wunderground v.1.15,2013-02-17 15:11:00,
2013-02-17 08:16:00,51.4,9.2,29.97,ESE,121,3.0,4.0,18,0.00,,,0.00,Wunderground v.1.15,2013-02-17 15:16:00,
2013-02-17 08:21:00,52.2,9.9,29.97,SE,127,2.0,3.0,18,0.00,,,0.00,Wunderground v.1.15,2013-02-17 15:21:00,
2013-02-17 08:26:00,53.2,8.1,29.97,SE,135,3.0,4.0,16,0.00,,,0.00,Wunderground v.1.15,2013-02-17 15:26:00,
2013-02-17 08:31:00,54.0,8.7,29.96,ESE,121,1.0,3.0,16,0.00,,,0.00,Wunderground v.1.15,2013-02-17 15:31:00,
2013-02-17 08:36:00,54.8,8.0,29.96,East,91,5.0,5.0,15,0.00,,,0.00,Wunderground v.1.15,2013-02-17 15:36:00,
2013-02-17 08:41:00,55.2,8.3,29.96,ESE,121,2.0,5.0,15,0.00,,,0.00,Wunderground v.1.15,2013-02-17 15:41:00,
2013-02-17 08:46:00,55.6,7.1,29.96,SE,127,3.0,5.0,14,0.00,,,0.00,Wunderground v.1.15,2013-02-17 15:46:00,
2013-02-17 08:51:00,56.3,7.6,29.96,SSE,150,2.0,6.0,14,0.00,,,0.00,Wunderground v.1.15,2013-02-17 15:51:00,
2013-02-17 08:56:00,56.8,6.4,29.96,ESE,115,3.0,6.0,13,0.00,,,0.00,Wunderground v.1.15,2013-02-17 15:56:00,
2013-02-17 09:01:00,57.0,4.8,29.96,ESE,117,3.0,5.0,12,0.00,,,0.00,Wunderground v.1.15,2013-02-17 16:01:00,
2013-02-17 09:06:00,57.1,4.9,29.96,SE,143,3.0,6.0,12,0.00,,,0.00,Wunderground v.1.15,2013-02-17 16:06:00,
2013-02-17 09:11:00,57.9,5.5,29.96,SE,145,4.0,6.0,12,0.00,,,0.00,Wunderground v.1.15,2013-02-17 16:11:00,
2013-02-17 09:16:00,58.5,4.1,29.96,SE,128,5.0,7.0,11,0.00,,,0.00,Wunderground v.1.15,2013-02-17 16:16:00,
2013-02-17 09:21:00,58.3,3.9,29.96,SE,143,4.0,6.0,11,0.00,,,0.00,Wunderground v.1.15,2013-02-17 16:21:00,
2013-02-17 09:26:00,58.0,5.6,29.96,SSE,153,3.0,7.0,12,0.00,,,0.00,Wunderground v.1.15,2013-02-17 16:26:00,
2013-02-17 09:31:00,58.8,6.2,29.96,SSE,167,5.0,6.0,12,0.00,,,0.00,Wunderground v.1.15,2013-02-17 16:31:00,
2013-02-17 09:36:00,59.4,6.7,29.95,SE,145,5.0,7.0,12,0.00,,,0.00,Wunderground v.1.15,2013-02-17 16:36:00,
2013-02-17 09:41:00,59.7,6.9,29.95,SE,136,5.0,9.0,12,0.00,,,0.00,Wunderground v.1.15,2013-02-17 16:41:00,
2013-02-17 09:46:00,60.0,5.2,29.95,SSE,159,7.0,9.0,11,0.00,,,0.00,Wunderground v.1.15,2013-02-17 16:46:00,
2013-02-17 09:51:00,60.4,5.6,29.95,South,190,6.0,8.0,11,0.00,,,0.00,Wunderground v.1.15,2013-02-17 16:51:00,
2013-02-17 09:56:00,61.2,6.2,29.95,SSW,205,4.0,8.0,11,0.00,,,0.00,Wunderground v.1.15,2013-02-17 16:56:00,
2013-02-17 10:01:00,61.5,6.4,29.95,South,170,6.0,7.0,11,0.00,,,0.00,Wunderground v.1.15,2013-02-17 17:01:00,
2013-02-17 10:06:00,61.7,6.6,29.95,SSE,166,5.0,9.0,11,0.00,,,0.00,Wunderground v.1.15,2013-02-17 17:06:00,
2013-02-17 10:11:00,61.9,4.6,29.94,South,177,8.0,11.0,10,0.00,,,0.00,Wunderground v.1.15,2013-02-17 17:11:00,
2013-02-17 10:16:00,62.0,6.8,29.94,SW,214,7.0,11.0,11,0.00,,,0.00,Wunderground v.1.15,2013-02-17 17:16:00,
2013-02-17 10:21:00,62.3,7.0,29.94,South,190,9.0,10.0,11,0.00,,,0.00,Wunderground v.1.15,2013-02-17 17:21:00,
2013-02-17 10:26:00,62.3,7.0,29.94,South,188,6.0,11.0,11,0.00,,,0.00,Wunderground v.1.15,2013-02-17 17:26:00,
2013-02-17 10:31:00,62.6,7.3,29.94,SSE,167,9.0,9.0,11,0.00,,,0.00,Wunderground v.1.15,2013-02-17 17:31:00,
2013-02-17 10:36:00,62.8,7.4,29.94,SSW,195,7.0,10.0,11,0.00,,,0.00,Wunderground v.1.15,2013-02-17 17:36:00,
2013-02-17 10:41:00,62.8,7.4,29.94,SSW,205,8.0,10.0,11,0.00,,,0.00,Wunderground v.1.15,2013-02-17 17:41:00,
2013-02-17 10:46:00,63.0,5.5,29.94,SW,228,5.0,11.0,10,0.00,,,0.00,Wunderground v.1.15,2013-02-17 17:46:00,
2013-02-17 10:51:00,63.2,5.6,29.93,South,169,5.0,8.0,10,0.00,,,0.00,Wunderground v.1.15,2013-02-17 17:51:00,
2013-02-17 10:56:00,63.3,5.7,29.93,South,186,5.0,8.0,10,0.00,,,0.00,Wunderground v.1.15,2013-02-17 17:56:00,
2013-02-17 11:01:00,63.0,5.5,29.93,SSW,200,2.0,7.0,10,0.00,,,0.00,Wunderground v.1.15,2013-02-17 18:01:00,
2013-02-17 11:06:00,63.3,5.7,29.93,SSW,193,6.0,10.0,10,0.00,,,0.00,Wunderground v.1.15,2013-02-17 18:06:00,
2013-02-17 11:11:00,63.5,5.9,29.93,SW,219,4.0,6.0,10,0.00,,,0.00,Wunderground v.1.15,2013-02-17 18:11:00,
2013-02-17 11:16:00,64.1,6.3,29.92,South,169,4.0,8.0,10,0.00,,,0.00,Wunderground v.1.15,2013-02-17 18:16:00,
2013-02-17 11:21:00,64.6,6.7,29.92,SW,217,5.0,11.0,10,0.00,,,0.00,Wunderground v.1.15,2013-02-17 18:21:00,
2013-02-17 11:26:00,64.9,9.0,29.92,SSW,205,5.0,11.0,11,0.00,,,0.00,Wunderground v.1.15,2013-02-17 18:26:00,
2013-02-17 11:31:00,65.2,7.2,29.92,SSW,205,9.0,15.0,10,0.00,,,0.00,Wunderground v.1.15,2013-02-17 18:31:00,
2013-02-17 11:36:00,65.3,7.2,29.91,SSE,161,5.0,15.0,10,0.00,,,0.00,Wunderground v.1.15,2013-02-17 18:36:00,
2013-02-17 11:41:00,65.4,7.3,29.91,SW,232,6.0,8.0,10,0.00,,,0.00,Wunderground v.1.15,2013-02-17 18:41:00,
2013-02-17 11:46:00,65.3,9.4,29.91,SSW,194,4.0,13.0,11,0.00,,,0.00,Wunderground v.1.15,2013-02-17 18:46:00,
2013-02-17 11:51:00,65.0,9.1,29.91,SW,226,7.0,12.0,11,0.00,,,0.00,Wunderground v.1.15,2013-02-17 18:51:00,
2013-02-17 11:56:00,65.0,9.1,29.90,WSW,241,4.0,12.0,11,0.00,,,0.00,Wunderground v.1.15,2013-02-17 18:56:00,
2013-02-17 12:01:00,64.6,8.8,29.89,SSW,194,6.0,7.0,11,0.00,,,0.00,Wunderground v.1.15,2013-02-17 19:01:00,
2013-02-17 12:06:00,65.4,9.4,29.89,South,176,8.0,15.0,11,0.00,,,0.00,Wunderground v.1.15,2013-02-17 19:06:00,
2013-02-17 12:11:00,65.3,9.4,29.89,South,181,8.0,12.0,11,0.00,,,0.00,Wunderground v.1.15,2013-02-17 19:11:00,
2013-02-17 12:16:00,65.7,7.6,29.88,WSW,238,3.0,14.0,10,0.00,,,0.00,Wunderground v.1.15,2013-02-17 19:16:00,
2013-02-17 12:21:00,66.5,8.2,29.88,SSW,207,13.0,14.0,10,0.00,,,0.00,Wunderground v.1.15,2013-02-17 19:21:00,
2013-02-17 12:26:00,66.7,8.3,29.87,SW,224,10.0,15.0,10,0.00,,,0.00,Wunderground v.1.15,2013-02-17 19:26:00,
2013-02-17 12:31:00,67.0,6.2,29.87,SW,217,13.0,16.0,9,0.00,,,0.00,Wunderground v.1.15,2013-02-17 19:31:00,
2013-02-17 12:36:00,67.0,8.5,29.87,SW,235,11.0,16.0,10,0.00,,,0.00,Wunderground v.1.15,2013-02-17 19:36:00,
2013-02-17 12:41:00,67.4,8.9,29.86,SW,221,10.0,17.0,10,0.00,,,0.00,Wunderground v.1.15,2013-02-17 19:41:00,
2013-02-17 12:46:00,67.6,6.7,29.86,SW,214,11.0,20.0,9,0.00,,,0.00,Wunderground v.1.15,2013-02-17 19:46:00,
2013-02-17 12:51:00,67.3,6.4,29.85,South,186,8.0,11.0,9,0.00,,,0.00,Wunderground v.1.15,2013-02-17 19:51:00,
2013-02-17 12:56:00,67.4,6.5,29.85,WSW,241,15.0,21.0,9,0.00,,,0.00,Wunderground v.1.15,2013-02-17 19:56:00,
2013-02-17 13:01:00,67.9,6.9,29.85,SW,224,8.0,12.0,9,0.00,,,0.00,Wunderground v.1.15,2013-02-17 20:01:00,
2013-02-17 13:06:00,68.3,7.2,29.85,West,276,4.0,16.0,9,0.00,,,0.00,Wunderground v.1.15,2013-02-17 20:06:00,
2013-02-17 13:11:00,67.6,9.0,29.84,WNW,298,11.0,15.0,10,0.00,,,0.00,Wunderground v.1.15,2013-02-17 20:11:00,
2013-02-17 13:16:00,67.3,8.8,29.84,West,274,7.0,15.0,10,0.00,,,0.00,Wunderground v.1.15,2013-02-17 20:16:00,
2013-02-17 13:21:00,66.8,8.4,29.84,WNW,300,10.0,15.0,10,0.00,,,0.00,Wunderground v.1.15,2013-02-17 20:21:00,
2013-02-17 13:26:00,66.8,8.4,29.83,WNW,287,8.0,15.0,10,0.00,,,0.00,Wunderground v.1.15,2013-02-17 20:26:00,
2013-02-17 13:31:00,66.7,10.4,29.83,West,263,7.0,9.0,11,0.00,,,0.00,Wunderground v.1.15,2013-02-17 20:31:00,
2013-02-17 13:36:00,67.5,1.1,29.83,SW,226,10.0,14.0,7,0.00,,,0.00,Wunderground v.1.15,2013-02-17 20:36:00,
2013-02-17 13:41:00,67.8,-1.9,29.83,WSW,255,7.0,17.0,6,0.00,,,0.00,Wunderground v.1.15,2013-02-17 20:41:00,
2013-02-17 13:46:00,67.9,1.4,29.83,West,270,5.0,18.0,7,0.00,,,0.00,Wunderground v.1.15,2013-02-17 20:46:00,
2013-02-17 13:51:00,68.3,1.7,29.82,WSW,242,11.0,13.0,7,0.00,,,0.00,Wunderground v.1.15,2013-02-17 20:51:00,
2013-02-17 13:56:00,68.1,1.6,29.82,WSW,247,16.0,16.0,7,0.00,,,0.00,Wunderground v.1.15,2013-02-17 20:56:00,
2013-02-17 14:01:00,67.9,1.4,29.82,SW,232,7.0,16.0,7,0.00,,,0.00,Wunderground v.1.15,2013-02-17 21:01:00,
2013-02-17 14:06:00,67.7,1.3,29.82,WSW,243,10.0,17.0,7,0.00,,,0.00,Wunderground v.1.15,2013-02-17 21:06:00,
2013-02-17 14:11:00,67.6,1.2,29.82,West,278,13.0,13.0,7,0.00,,,0.00,Wunderground v.1.15,2013-02-17 21:11:00,
2013-02-17 14:16:00,67.7,1.3,29.82,SSW,208,12.0,18.0,7,0.00,,,0.00,Wunderground v.1.15,2013-02-17 21:16:00,
2013-02-17 14:21:00,67.7,4.2,29.82,West,278,7.0,11.0,8,0.00,,,0.00,Wunderground v.1.15,2013-02-17 21:21:00,
2013-02-17 14:26:00,68.1,4.5,29.81,SW,228,8.0,19.0,8,0.00,,,0.00,Wunderground v.1.15,2013-02-17 21:26:00,
2013-02-17 14:31:00,67.7,4.2,29.81,West,276,3.0,11.0,8,0.00,,,0.00,Wunderground v.1.15,2013-02-17 21:31:00,
2013-02-17 14:36:00,68.1,4.5,29.81,SW,222,10.0,22.0,8,0.00,,,0.00,Wunderground v.1.15,2013-02-17 21:36:00,
2013-02-17 14:41:00,67.9,4.3,29.81,WNW,289,4.0,11.0,8,0.00,,,0.00,Wunderground v.1.15,2013-02-17 21:41:00,
2013-02-17 14:46:00,67.8,4.2,29.80,WSW,242,12.0,15.0,8,0.00,,,0.00,Wunderground v.1.15,2013-02-17 21:46:00,
2013-02-17 14:51:00,67.6,6.7,29.81,WSW,243,14.0,15.0,9,0.00,,,0.00,Wunderground v.1.15,2013-02-17 21:51:00,
2013-02-17 14:56:00,67.4,6.5,29.81,SW,233,11.0,21.0,9,0.00,,,0.00,Wunderground v.1.15,2013-02-17 21:56:00,
2013-02-17 15:01:00,67.3,6.4,29.81,WSW,253,7.0,13.0,9,0.00,,,0.00,Wunderground v.1.15,2013-02-17 22:01:00,
2013-02-17 15:06:00,67.7,4.2,29.81,SW,230,15.0,15.0,8,0.00,,,0.00,Wunderground v.1.15,2013-02-17 22:06:00,
2013-02-17 15:11:00,67.7,4.2,29.81,SW,229,16.0,18.0,8,0.00,,,0.00,Wunderground v.1.15,2013-02-17 22:11:00,
2013-02-17 15:16:00,67.6,4.1,29.81,WSW,238,15.0,18.0,8,0.00,,,0.00,Wunderground v.1.15,2013-02-17 22:16:00,
2013-02-17 15:21:00,67.5,4.0,29.80,SSW,207,14.0,17.0,8,0.00,,,0.00,Wunderground v.1.15,2013-02-17 22:21:00,
2013-02-17 15:26:00,67.3,3.9,29.80,West,259,13.0,20.0,8,0.00,,,0.00,Wunderground v.1.15,2013-02-17 22:26:00,
2013-02-17 15:31:00,67.3,3.9,29.80,WSW,253,7.0,19.0,8,0.00,,,0.00,Wunderground v.1.15,2013-02-17 22:31:00,
2013-02-17 15:36:00,66.8,3.5,29.80,SW,224,10.0,21.0,8,0.00,,,0.00,Wunderground v.1.15,2013-02-17 22:36:00,
2013-02-17 15:41:00,66.9,3.6,29.81,SW,226,15.0,18.0,8,0.00,,,0.00,Wunderground v.1.15,2013-02-17 22:41:00,
2013-02-17 15:46:00,66.7,3.4,29.81,SW,225,12.0,18.0,8,0.00,,,0.00,Wunderground v.1.15,2013-02-17 22:46:00,
2013-02-17 15:51:00,66.7,6.0,29.81,SW,231,8.0,15.0,9,0.00,,,0.00,Wunderground v.1.15,2013-02-17 22:51:00,
2013-02-17 15:56:00,66.6,3.3,29.81,SW,231,10.0,17.0,8,0.00,,,0.00,Wunderground v.1.15,2013-02-17 22:56:00,
2013-02-17 16:01:00,67.0,3.6,29.81,West,267,8.0,13.0,8,0.00,,,0.00,Wunderground v.1.15,2013-02-17 23:01:00,
2013-02-17 16:06:00,67.0,3.6,29.81,SW,221,9.0,17.0,8,0.00,,,0.00,Wunderground v.1.15,2013-02-17 23:06:00,
2013-02-17 16:11:00,66.7,6.0,29.81,SW,236,14.0,15.0,9,0.00,,,0.00,Wunderground v.1.15,2013-02-17 23:11:00,
2013-02-17 16:16:00,66.2,5.6,29.81,SW,221,9.0,18.0,9,0.00,,,0.00,Wunderground v.1.15,2013-02-17 23:16:00,
2013-02-17 16:21:00,66.1,5.5,29.81,SW,221,15.0,19.0,9,0.00,,,0.00,Wunderground v.1.15,2013-02-17 23:21:00,
2013-02-17 16:26:00,65.7,5.2,29.81,SW,217,9.0,19.0,9,0.00,,,0.00,Wunderground v.1.15,2013-02-17 23:26:00,
2013-02-17 16:31:00,65.7,5.2,29.81,WSW,248,13.0,18.0,9,0.00,,,0.00,Wunderground v.1.15,2013-02-17 23:31:00,
2013-02-17 16:36:00,65.6,5.2,29.81,SSW,208,13.0,18.0,9,0.00,,,0.00,Wunderground v.1.15,2013-02-17 23:36:00,
2013-02-17 16:41:00,65.2,4.9,29.81,SW,218,14.0,16.0,9,0.00,,,0.00,Wunderground v.1.15,2013-02-17 23:41:00,
2013-02-17 16:46:00,65.3,7.2,29.81,SW,224,12.0,16.0,10,0.00,,,0.00,Wunderground v.1.15,2013-02-17 23:46:00,
2013-02-17 16:51:00,65.1,7.1,29.81,WNW,283,7.0,11.0,10,0.00,,,0.00,Wunderground v.1.15,2013-02-17 23:51:00,
2013-02-17 16:56:00,64.9,6.9,29.81,SSW,211,14.0,17.0,10,0.00,,,0.00,Wunderground v.1.15,2013-02-17 23:56:00,
2013-02-17 17:01:00,64.5,6.6,29.82,SW,236,13.0,18.0,10,0.00,,,0.00,Wunderground v.1.15,2013-02-18 00:01:00,
2013-02-17 17:06:00,64.1,6.3,29.82,SW,214,13.0,18.0,10,0.00,,,0.00,Wunderground v.1.15,2013-02-18 00:06:00,
2013-02-17 17:11:00,63.8,6.1,29.82,SW,229,10.0,16.0,10,0.00,,,0.00,Wunderground v.1.15,2013-02-18 00:11:00,
2013-02-17 17:16:00,63.3,5.7,29.82,SSW,208,15.0,18.0,10,0.00,,,0.00,Wunderground v.1.15,2013-02-18 00:16:00,
2013-02-17 17:21:00,62.6,5.2,29.82,SW,224,9.0,16.0,10,0.00,,,0.00,Wunderground v.1.15,2013-02-18 00:21:00,
2013-02-17 17:26:00,62.4,5.0,29.82,SW,231,15.0,17.0,10,0.00,,,0.00,Wunderground v.1.15,2013-02-18 00:26:00,
2013-02-17 17:31:00,62.3,4.9,29.82,SSW,208,9.0,13.0,10,0.00,,,0.00,Wunderground v.1.15,2013-02-18 00:31:00,
2013-02-17 17:36:00,61.6,4.4,29.82,SW,218,11.0,19.0,10,0.00,,,0.00,Wunderground v.1.15,2013-02-18 00:36:00,
2013-02-17 17:41:00,61.0,3.9,29.83,SW,225,13.0,16.0,10,0.00,,,0.00,Wunderground v.1.15,2013-02-18 00:41:00,
2013-02-17 17:46:00,60.7,3.7,29.83,SW,221,8.0,16.0,10,0.00,,,0.00,Wunderground v.1.15,2013-02-18 00:46:00,
2013-02-17 17:51:00,60.0,3.2,29.83,SW,219,7.0,12.0,10,0.00,,,0.00,Wunderground v.1.15,2013-02-18 00:51:00,
2013-02-17 17:57:00,59.4,4.8,29.83,West,260,6.0,12.0,11,0.00,,,0.00,Wunderground v.1.15,2013-02-18 00:57:00,
2013-02-17 18:02:00,59.0,4.5,29.83,SW,214,4.0,12.0,11,0.00,,,0.00,Wunderground v.1.15,2013-02-18 01:02:00,
2013-02-17 18:07:00,58.2,5.7,29.83,SW,218,4.0,12.0,12,0.00,,,0.00,Wunderground v.1.15,2013-02-18 01:07:00,
2013-02-17 18:12:00,57.3,5.0,29.84,SSW,211,2.0,6.0,12,0.00,,,0.00,Wunderground v.1.15,2013-02-18 01:12:00,
2013-02-17 18:17:00,56.6,6.2,29.84,SW,230,6.0,8.0,13,0.00,,,0.00,Wunderground v.1.15,2013-02-18 01:17:00,
2013-02-17 18:22:00,56.5,6.2,29.84,South,173,6.0,11.0,13,0.00,,,0.00,Wunderground v.1.15,2013-02-18 01:22:00,
2013-02-17 18:27:00,56.3,6.0,29.84,SW,214,6.0,11.0,13,0.00,,,0.00,Wunderground v.1.15,2013-02-18 01:27:00,
2013-02-17 18:32:00,56.0,7.4,29.84,SW,217,7.0,7.0,14,0.00,,,0.00,Wunderground v.1.15,2013-02-18 01:32:00,
2013-02-17 18:37:00,55.7,7.1,29.84,South,190,3.0,8.0,14,0.00,,,0.00,Wunderground v.1.15,2013-02-18 01:37:00,
2013-02-17 18:42:00,55.5,7.0,29.85,SSW,203,6.0,9.0,14,0.00,,,0.00,Wunderground v.1.15,2013-02-18 01:42:00,
2013-02-17 18:47:00,55.0,8.1,29.85,SSW,206,7.0,9.0,15,0.00,,,0.00,Wunderground v.1.15,2013-02-18 01:47:00,
2013-02-17 18:52:00,54.6,7.8,29.85,SSW,212,6.0,7.0,15,0.00,,,0.00,Wunderground v.1.15,2013-02-18 01:52:00,
2013-02-17 18:57:00,54.2,7.5,29.86,SSW,200,4.0,7.0,15,0.00,,,0.00,Wunderground v.1.15,2013-02-18 01:57:00,
2013-02-17 19:02:00,53.6,8.4,29.86,South,184,4.0,6.0,16,0.00,,,0.00,Wunderground v.1.15,2013-02-18 02:02:00,
2013-02-17 19:07:00,53.3,8.2,29.86,SSW,195,5.0,6.0,16,0.00,,,0.00,Wunderground v.1.15,2013-02-18 02:07:00,
2013-02-17 19:12:00,53.2,8.1,29.87,South,190,5.0,7.0,16,0.00,,,0.00,Wunderground v.1.15,2013-02-18 02:12:00,
2013-02-17 19:17:00,53.0,7.9,29.86,SSW,203,4.0,8.0,16,0.00,,,0.00,Wunderground v.1.15,2013-02-18 02:17:00,
2013-02-17 19:22:00,52.6,7.6,29.87,SSW,199,5.0,7.0,16,0.00,,,0.00,Wunderground v.1.15,2013-02-18 02:22:00,
2013-02-17 19:27:00,52.6,7.6,29.87,SSW,207,4.0,9.0,16,0.00,,,0.00,Wunderground v.1.15,2013-02-18 02:27:00,
2013-02-17 19:32:00,52.7,7.7,29.87,SSW,197,4.0,8.0,16,0.00,,,0.00,Wunderground v.1.15,2013-02-18 02:32:00,
2013-02-17 19:37:00,52.9,7.8,29.87,SW,225,5.0,8.0,16,0.00,,,0.00,Wunderground v.1.15,2013-02-18 02:37:00,
2013-02-17 19:42:00,52.8,7.8,29.87,SW,214,5.0,7.0,16,0.00,,,0.00,Wunderground v.1.15,2013-02-18 02:42:00,
2013-02-17 19:47:00,52.6,7.6,29.87,SSW,205,5.0,7.0,16,0.00,,,0.00,Wunderground v.1.15,2013-02-18 02:47:00,
2013-02-17 19:52:00,52.4,7.4,29.87,WSW,239,4.0,6.0,16,0.00,,,0.00,Wunderground v.1.15,2013-02-18 02:52:00,
2013-02-17 19:57:00,52.2,7.3,29.87,SW,229,6.0,8.0,16,0.00,,,0.00,Wunderground v.1.15,2013-02-18 02:57:00,
2013-02-17 20:02:00,51.7,6.9,29.88,SW,215,5.0,8.0,16,0.00,,,0.00,Wunderground v.1.15,2013-02-18 03:02:00,
2013-02-17 20:07:00,52.1,7.2,29.88,SW,219,4.0,11.0,16,0.00,,,0.00,Wunderground v.1.15,2013-02-18 03:07:00,
2013-02-17 20:12:00,51.0,7.6,29.87,WSW,246,2.0,5.0,17,0.00,,,0.00,Wunderground v.1.15,2013-02-18 03:12:00,
2013-02-17 20:17:00,49.9,8.0,29.88,SW,228,4.0,5.0,18,0.00,,,0.00,Wunderground v.1.15,2013-02-18 03:17:00,
2013-02-17 20:22:00,49.2,7.4,29.88,SW,233,3.0,6.0,18,0.00,,,0.00,Wunderground v.1.15,2013-02-18 03:22:00,
2013-02-17 20:27:00,49.1,7.3,29.88,WSW,245,6.0,9.0,18,0.00,,,0.00,Wunderground v.1.15,2013-02-18 03:27:00,
2013-02-17 20:32:00,50.6,7.3,29.88,SW,236,4.0,9.0,17,0.00,,,0.00,Wunderground v.1.15,2013-02-18 03:32:00,
2013-02-17 20:37:00,51.8,8.3,29.88,West,260,5.0,12.0,17,0.00,,,0.00,Wunderground v.1.15,2013-02-18 03:37:00,
2013-02-17 20:42:00,53.2,8.1,29.89,WSW,245,12.0,15.0,16,0.00,,,0.00,Wunderground v.1.15,2013-02-18 03:42:00,
2013-02-17 20:47:00,53.6,7.0,29.89,SW,223,5.0,15.0,15,0.00,,,0.00,Wunderground v.1.15,2013-02-18 03:47:00,
2013-02-17 20:52:00,53.4,8.3,29.89,WSW,250,6.0,11.0,16,0.00,,,0.00,Wunderground v.1.15,2013-02-18 03:52:00,
2013-02-17 20:57:00,53.7,8.5,29.89,SW,231,8.0,15.0,16,0.00,,,0.00,Wunderground v.1.15,2013-02-18 03:57:00,
2013-02-17 21:02:00,53.6,8.4,29.89,WSW,240,10.0,13.0,16,0.00,,,0.00,Wunderground v.1.15,2013-02-18 04:02:00,
2013-02-17 21:07:00,53.2,8.1,29.89,SSW,204,7.0,13.0,16,0.00,,,0.00,Wunderground v.1.15,2013-02-18 04:07:00,
2013-02-17 21:12:00,52.4,8.8,29.89,SW,224,9.0,11.0,17,0.00,,,0.00,Wunderground v.1.15,2013-02-18 04:12:00,
2013-02-17 21:17:00,51.9,8.4,29.89,SW,231,8.0,11.0,17,0.00,,,0.00,Wunderground v.1.15,2013-02-18 04:17:00,
2013-02-17 21:22:00,51.3,9.2,29.89,SW,218,6.0,10.0,18,0.00,,,0.00,Wunderground v.1.15,2013-02-18 04:22:00,
2013-02-17 21:27:00,50.8,8.7,29.89,WSW,248,5.0,10.0,18,0.00,,,0.00,Wunderground v.1.15,2013-02-18 04:27:00,
2013-02-17 21:32:00,50.6,9.8,29.89,WSW,245,8.0,10.0,19,0.00,,,0.00,Wunderground v.1.15,2013-02-18 04:32:00,
2013-02-17 21:37:00,50.2,9.5,29.90,SW,231,6.0,10.0,19,0.00,,,0.00,Wunderground v.1.15,2013-02-18 04:37:00,
2013-02-17 21:42:00,49.6,9.0,29.90,SW,232,5.0,9.0,19,0.00,,,0.00,Wunderground v.1.15,2013-02-18 04:42:00,
2013-02-17 21:47:00,49.3,9.9,29.90,SW,229,6.0,9.0,20,0.00,,,0.00,Wunderground v.1.15,2013-02-18 04:47:00,
2013-02-17 21:52:00,49.3,9.9,29.90,SW,221,6.0,9.0,20,0.00,,,0.00,Wunderground v.1.15,2013-02-18 04:52:00,
2013-02-17 21:57:00,49.3,9.9,29.90,SW,224,6.0,11.0,20,0.00,,,0.00,Wunderground v.1.15,2013-02-18 04:57:00,
2013-02-17 22:00:00,49.2,9.8,29.90,WSW,239,6.0,6.0,20,0.00,,,0.00,Wunderground v.1.15,2013-02-18 05:00:00,
2013-02-17 22:05:00,48.9,9.5,29.90,WSW,247,2.0,10.0,20,0.00,,,0.00,Wunderground v.1.15,2013-02-18 05:05:00,
2013-02-17 22:10:00,47.8,9.7,29.90,WSW,243,5.0,5.0,21,0.00,,,0.00,Wunderground v.1.15,2013-02-18 05:10:00,
2013-02-17 22:15:00,47.9,9.8,29.90,West,261,5.0,7.0,21,0.00,,,0.00,Wunderground v.1.15,2013-02-18 05:15:00,
2013-02-17 22:20:00,47.9,9.8,29.90,WSW,256,3.0,4.0,21,0.00,,,0.00,Wunderground v.1.15,2013-02-18 05:20:00,
2013-02-17 22:25:00,47.8,9.7,29.90,West,259,2.0,7.0,21,0.00,,,0.00,Wunderground v.1.15,2013-02-18 05:25:00,
2013-02-17 22:30:00,47.1,9.1,29.90,WSW,253,1.0,3.0,21,0.00,,,0.00,Wunderground v.1.15,2013-02-18 05:30:00,
2013-02-17 22:35:00,46.9,10.0,29.90,SW,226,3.0,6.0,22,0.00,,,0.00,Wunderground v.1.15,2013-02-18 05:35:00,
2013-02-17 22:40:00,46.3,9.5,29.90,West,269,4.0,5.0,22,0.00,,,0.00,Wunderground v.1.15,2013-02-18 05:40:00,
2013-02-17 22:45:00,46.0,10.2,29.90,SW,233,3.0,5.0,23,0.00,,,0.00,Wunderground v.1.15,2013-02-18 05:45:00,
2013-02-17 22:50:00,45.5,9.8,29.90,WSW,242,4.0,4.0,23,0.00,,,0.00,Wunderground v.1.15,2013-02-18 05:50:00,
2013-02-17 22:55:00,45.2,10.5,29.90,WSW,245,2.0,5.0,24,0.00,,,0.00,Wunderground v.1.15,2013-02-18 05:55:00,
2013-02-17 23:00:00,44.8,10.1,29.90,SW,233,3.0,5.0,24,0.00,,,0.00,Wunderground v.1.15,2013-02-18 06:00:00,
2013-02-17 23:05:00,45.0,10.3,29.90,SW,234,2.0,5.0,24,0.00,,,0.00,Wunderground v.1.15,2013-02-18 06:05:00,
2013-02-17 23:10:00,44.7,10.1,29.90,SW,229,2.0,4.0,24,0.00,,,0.00,Wunderground v.1.15,2013-02-18 06:10:00,
2013-02-17 23:15:00,44.6,10.0,29.90,West,271,2.0,4.0,24,0.00,,,0.00,Wunderground v.1.15,2013-02-18 06:15:00,
2013-02-17 23:20:00,44.5,9.9,29.90,West,260,1.0,3.0,24,0.00,,,0.00,Wunderground v.1.15,2013-02-18 06:20:00,
2013-02-17 23:25:00,44.1,9.5,29.90,WSW,257,2.0,3.0,24,0.00,,,0.00,Wunderground v.1.15,2013-02-18 06:25:00,
2013-02-17 23:30:00,43.9,10.3,29.91,WSW,240,3.0,4.0,25,0.00,,,0.00,Wunderground v.1.15,2013-02-18 06:30:00,
2013-02-17 23:35:00,43.7,10.1,29.91,SW,231,2.0,4.0,25,0.00,,,0.00,Wunderground v.1.15,2013-02-18 06:35:00,
2013-02-17 23:40:00,43.8,10.2,29.90,SW,233,3.0,4.0,25,0.00,,,0.00,Wunderground v.1.15,2013-02-18 06:40:00,
2013-02-17 23:45:00,44.1,11.3,29.91,WSW,243,4.0,6.0,26,0.00,,,0.00,Wunderground v.1.15,2013-02-18 06:45:00,
2013-02-17 23:50:00,44.9,11.1,29.91,SW,229,3.0,5.0,25,0.00,,,0.00,Wunderground v.1.15,2013-02-18 06:50:00,
2013-02-17 23:55:00,44.9,11.1,29.91,SW,232,3.0,6.0,25,0.00,,,0.00,Wunderground v.1.15,2013-02-18 06:55:00,